createdAt,value
2018-08-20T00:00:48.471Z,21.60
2018-08-20T00:03:15.832Z,21.50
2018-08-20T00:05:47.737Z,21.30
2018-08-20T00:08:15.147Z,21.50
2018-08-20T00:10:42.512Z,21.50
2018-08-20T00:13:09.867Z,21.50
2018-08-20T00:15:37.234Z,21.10
2018-08-20T00:18:04.570Z,21.30
2018-08-20T00:20:31.936Z,21.40
2018-08-20T00:22:59.296Z,21.00
2018-08-20T00:25:26.678Z,21.30
2018-08-20T00:27:54.038Z,21.20
2018-08-20T00:30:21.399Z,21.10
2018-08-20T00:32:49.230Z,20.90
2018-08-20T00:35:18.323Z,20.90
2018-08-20T00:37:48.237Z,21.30
2018-08-20T00:40:15.666Z,21.40
2018-08-20T00:42:43.040Z,21.30
2018-08-20T00:45:10.597Z,21.20
2018-08-20T00:47:38.090Z,21.50
2018-08-20T00:50:06.675Z,21.50
2018-08-20T00:52:34.072Z,21.20
2018-08-20T00:55:01.443Z,21.50
2018-08-20T00:57:28.808Z,21.40
2018-08-20T00:59:56.183Z,21.40
2018-08-20T01:02:24.456Z,21.30
2018-08-20T01:04:51.871Z,21.70
2018-08-20T01:07:19.239Z,21.60
2018-08-20T01:09:46.604Z,21.60
2018-08-20T01:12:13.951Z,21.70
2018-08-20T01:14:41.286Z,21.60
2018-08-20T01:17:08.637Z,21.60
2018-08-20T01:19:36.010Z,21.80
2018-08-20T01:22:03.369Z,21.40
2018-08-20T01:24:30.711Z,21.50
2018-08-20T01:26:58.282Z,21.50
2018-08-20T01:29:25.660Z,21.60
2018-08-20T01:31:53.011Z,21.60
2018-08-20T01:34:20.364Z,21.80
2018-08-20T01:36:47.711Z,21.70
2018-08-20T01:39:15.047Z,21.50
2018-08-20T01:41:42.395Z,21.50
2018-08-20T01:44:09.759Z,21.70
2018-08-20T01:46:37.118Z,22.10
2018-08-20T01:49:04.472Z,22.10
2018-08-20T01:51:31.820Z,22.30
2018-08-20T01:53:59.187Z,22.00
2018-08-20T01:56:26.540Z,21.80
2018-08-20T01:58:53.905Z,22.00
2018-08-20T02:01:21.244Z,21.80
2018-08-20T02:03:48.618Z,21.80
2018-08-20T02:06:15.951Z,21.90
2018-08-20T02:08:43.305Z,22.00
2018-08-20T02:11:10.672Z,21.90
2018-08-20T02:13:38.027Z,21.50
2018-08-20T02:16:05.821Z,21.40
2018-08-20T02:18:33.180Z,21.50
2018-08-20T02:21:00.612Z,21.40
2018-08-20T02:23:27.969Z,21.60
2018-08-20T02:25:55.339Z,21.30
2018-08-20T02:28:22.683Z,21.50
2018-08-20T02:30:50.052Z,21.40
2018-08-20T02:33:17.396Z,21.20
2018-08-20T02:35:44.748Z,21.20
2018-08-20T02:38:12.106Z,20.90
2018-08-20T02:40:39.461Z,21.10
2018-08-20T02:43:06.818Z,21.20
2018-08-20T02:45:34.169Z,21.30
2018-08-20T02:48:01.513Z,20.90
2018-08-20T02:50:28.901Z,20.80
2018-08-20T02:52:56.295Z,20.60
2018-08-20T02:55:23.641Z,20.70
2018-08-20T02:57:51.000Z,20.50
2018-08-20T03:00:18.408Z,20.80
2018-08-20T03:02:45.737Z,21.20
2018-08-20T03:05:13.120Z,20.90
2018-08-20T03:07:40.505Z,21.10
2018-08-20T03:10:09.692Z,20.90
2018-08-20T03:12:37.106Z,21.00
2018-08-20T03:15:05.531Z,20.90
2018-08-20T03:17:32.899Z,20.80
2018-08-20T03:20:00.282Z,20.40
2018-08-20T03:22:27.615Z,20.30
2018-08-20T03:24:54.934Z,20.20
2018-08-20T03:27:22.283Z,19.90
2018-08-20T03:29:49.644Z,20.00
2018-08-20T03:32:16.979Z,20.30
2018-08-20T03:34:44.403Z,20.60
2018-08-20T03:37:11.767Z,20.60
2018-08-20T03:39:39.134Z,20.70
2018-08-20T03:42:06.609Z,20.50
2018-08-20T03:44:33.967Z,20.30
2018-08-20T03:47:01.321Z,20.70
2018-08-20T03:49:28.671Z,20.40
2018-08-20T03:51:56.042Z,20.80
2018-08-20T03:54:23.437Z,20.70
2018-08-20T03:56:50.816Z,20.60
2018-08-20T03:59:30.621Z,20.40
2018-08-20T04:01:59.231Z,20.50
2018-08-20T04:04:27.032Z,20.30
2018-08-20T04:06:54.375Z,20.10
2018-08-20T04:09:21.769Z,20.40
2018-08-20T04:11:49.125Z,20.60
2018-08-20T04:14:16.489Z,20.60
2018-08-20T04:16:43.839Z,20.60
2018-08-20T04:19:11.216Z,20.40
2018-08-20T04:21:38.560Z,20.50
2018-08-20T04:24:05.983Z,20.40
2018-08-20T04:26:33.360Z,20.50
2018-08-20T04:29:00.951Z,20.30
2018-08-20T04:31:28.347Z,20.60
2018-08-20T04:33:55.713Z,20.40
2018-08-20T04:36:23.104Z,20.40
2018-08-20T04:38:50.443Z,20.60
2018-08-20T04:41:17.855Z,20.50
2018-08-20T04:43:45.203Z,20.50
2018-08-20T04:46:12.608Z,20.60
2018-08-20T04:48:39.980Z,20.60
2018-08-20T04:51:07.542Z,20.60
2018-08-20T04:53:34.696Z,20.60
2018-08-20T04:56:02.045Z,20.50
2018-08-20T04:58:29.392Z,20.50
2018-08-20T05:00:56.727Z,20.50
2018-08-20T05:03:24.067Z,20.50
2018-08-20T05:05:51.425Z,20.50
2018-08-20T05:08:18.796Z,20.50
2018-08-20T05:10:46.135Z,20.30
2018-08-20T05:13:13.543Z,20.30
2018-08-20T05:15:40.879Z,20.40
2018-08-20T05:18:08.264Z,20.60
2018-08-20T05:20:35.667Z,20.60
2018-08-20T05:23:03.016Z,20.50
2018-08-20T05:25:30.383Z,20.40
2018-08-20T05:27:57.714Z,20.60
2018-08-20T05:30:25.066Z,20.50
2018-08-20T05:32:52.630Z,20.50
2018-08-20T05:35:20.004Z,20.50
2018-08-20T05:37:47.378Z,20.30
2018-08-20T05:40:14.725Z,20.20
2018-08-20T05:42:42.071Z,20.30
2018-08-20T05:45:10.864Z,20.50
2018-08-20T05:47:38.412Z,20.40
2018-08-20T05:50:06.292Z,20.60
2018-08-20T05:52:33.664Z,20.50
2018-08-20T05:55:01.003Z,20.70
2018-08-20T05:57:28.352Z,20.80
2018-08-20T05:59:55.744Z,20.80
2018-08-20T06:02:23.156Z,20.50
2018-08-20T06:04:50.886Z,20.40
2018-08-20T06:07:18.264Z,20.70
2018-08-20T06:09:45.621Z,20.70
2018-08-20T06:12:13.256Z,20.80
2018-08-20T06:14:40.598Z,20.80
2018-08-20T06:17:07.967Z,21.00
2018-08-20T06:19:35.346Z,21.10
2018-08-20T06:22:02.726Z,21.10
2018-08-20T06:24:30.061Z,21.20
2018-08-20T06:26:57.428Z,20.80
2018-08-20T06:29:24.808Z,20.80
2018-08-20T06:31:52.252Z,21.10
2018-08-20T06:34:19.604Z,21.00
2018-08-20T06:36:46.971Z,20.50
2018-08-20T06:39:14.346Z,20.40
2018-08-20T06:41:41.724Z,20.90
2018-08-20T06:44:09.058Z,21.30
2018-08-20T06:46:36.895Z,21.30
2018-08-20T06:49:05.144Z,21.20
2018-08-20T06:51:32.477Z,21.30
2018-08-20T06:54:00.025Z,20.80
2018-08-20T06:56:27.367Z,21.10
2018-08-20T06:58:54.707Z,21.20
2018-08-20T07:01:22.043Z,21.50
2018-08-20T07:03:49.411Z,21.30
2018-08-20T07:06:16.828Z,21.30
2018-08-20T07:08:44.165Z,21.50
2018-08-20T07:11:11.528Z,21.70
2018-08-20T07:13:38.890Z,21.70
2018-08-20T07:16:07.386Z,21.50
2018-08-20T07:18:34.821Z,21.20
2018-08-20T07:21:02.163Z,21.80
2018-08-20T07:23:29.954Z,22.10
2018-08-20T07:25:57.254Z,21.80
2018-08-20T07:28:24.615Z,21.60
2018-08-20T07:30:51.993Z,21.80
2018-08-20T07:33:19.351Z,22.00
2018-08-20T07:35:46.763Z,22.00
2018-08-20T07:38:14.188Z,21.30
2018-08-20T07:40:41.563Z,21.70
2018-08-20T07:43:09.016Z,21.50
2018-08-20T07:45:36.385Z,21.60
2018-08-20T07:48:03.773Z,21.90
2018-08-20T07:50:31.115Z,22.10
2018-08-20T07:52:58.484Z,21.60
2018-08-20T07:55:25.868Z,21.40
2018-08-20T07:57:53.271Z,21.60
2018-08-20T08:00:20.749Z,21.90
2018-08-20T08:02:48.247Z,22.10
2018-08-20T08:05:15.645Z,22.40
2018-08-20T08:07:42.999Z,22.40
2018-08-20T08:10:12.360Z,22.50
2018-08-20T08:12:39.768Z,22.70
2018-08-20T08:15:08.404Z,22.80
2018-08-20T08:17:35.752Z,22.70
2018-08-20T08:20:03.755Z,23.00
2018-08-20T08:22:31.143Z,22.90
2018-08-20T08:24:58.569Z,22.80
2018-08-20T08:27:25.956Z,22.70
2018-08-20T08:29:53.413Z,22.60
2018-08-20T08:32:20.959Z,22.90
2018-08-20T08:34:48.326Z,22.90
2018-08-20T08:37:15.732Z,23.10
2018-08-20T08:39:43.127Z,22.90
2018-08-20T08:42:10.500Z,22.70
2018-08-20T08:44:37.894Z,22.40
2018-08-20T08:47:05.521Z,22.50
2018-08-20T08:49:32.876Z,22.60
2018-08-20T08:52:00.348Z,22.60
2018-08-20T08:54:27.695Z,23.00
2018-08-20T08:56:55.084Z,22.70
2018-08-20T08:59:22.433Z,22.70
2018-08-20T09:01:49.816Z,22.80
2018-08-20T09:04:17.226Z,23.10
2018-08-20T09:06:44.567Z,22.80
2018-08-20T09:09:11.924Z,23.00
2018-08-20T09:11:39.276Z,23.10
2018-08-20T09:14:06.651Z,22.90
2018-08-20T09:16:33.983Z,22.90
2018-08-20T09:19:01.364Z,22.70
2018-08-20T09:21:28.699Z,22.70
2018-08-20T09:23:56.084Z,22.90
2018-08-20T09:26:23.448Z,23.10
2018-08-20T09:28:50.788Z,23.40
2018-08-20T09:31:18.138Z,23.40
2018-08-20T09:33:45.488Z,23.50
2018-08-20T09:36:12.863Z,24.00
2018-08-20T09:38:40.244Z,24.10
2018-08-20T09:41:07.576Z,24.40
2018-08-20T09:43:34.946Z,24.30
2018-08-20T09:46:02.282Z,24.10
2018-08-20T09:48:30.095Z,24.40
2018-08-20T09:50:57.472Z,24.80
2018-08-20T09:53:24.899Z,24.10
2018-08-20T09:55:52.278Z,24.20
2018-08-20T09:58:19.628Z,24.20
2018-08-20T10:00:47.006Z,23.60
2018-08-20T10:03:14.387Z,24.30
2018-08-20T10:05:41.721Z,25.00
2018-08-20T10:08:09.265Z,24.30
2018-08-20T10:10:36.635Z,24.40
2018-08-20T10:13:04.032Z,24.60
2018-08-20T10:15:31.364Z,24.50
2018-08-20T10:17:58.717Z,24.40
2018-08-20T10:20:26.084Z,23.80
2018-08-20T10:22:53.475Z,24.20
2018-08-20T10:25:20.828Z,24.10
2018-08-20T10:27:48.187Z,23.90
2018-08-20T10:30:15.544Z,24.10
2018-08-20T10:32:42.911Z,24.10
2018-08-20T10:35:10.283Z,24.70
2018-08-20T10:37:37.676Z,24.80
2018-08-20T10:40:06.251Z,25.10
2018-08-20T10:42:33.610Z,25.20
2018-08-20T10:45:06.754Z,25.20
2018-08-20T10:47:34.099Z,24.70
2018-08-20T10:50:01.525Z,25.00
2018-08-20T10:52:28.804Z,24.00
2018-08-20T10:54:56.185Z,24.10
2018-08-20T10:57:23.556Z,24.00
2018-08-20T10:59:50.896Z,23.40
2018-08-20T11:02:18.288Z,23.80
2018-08-20T11:04:45.651Z,24.20
2018-08-20T11:07:13.039Z,23.90
2018-08-20T11:09:40.385Z,24.80
2018-08-20T11:12:07.761Z,25.00
2018-08-20T11:14:35.122Z,24.50
2018-08-20T11:17:02.495Z,24.70
2018-08-20T11:19:29.890Z,25.10
2018-08-20T11:21:57.248Z,25.20
2018-08-20T11:24:25.424Z,25.80
2018-08-20T11:26:52.769Z,26.10
2018-08-20T11:29:20.128Z,26.00
2018-08-20T11:31:47.543Z,25.50
2018-08-20T11:34:14.954Z,24.80
2018-08-20T11:36:42.368Z,24.70
2018-08-20T11:39:09.656Z,24.70
2018-08-20T11:41:37.142Z,25.10
2018-08-20T11:44:04.500Z,24.60
2018-08-20T11:46:32.107Z,24.70
2018-08-20T11:48:59.703Z,24.80
2018-08-20T11:51:27.078Z,24.30
2018-08-20T11:53:54.468Z,24.40
2018-08-20T11:56:22.480Z,24.70
2018-08-20T11:58:49.851Z,24.60
2018-08-20T12:01:17.199Z,24.40
2018-08-20T12:03:48.274Z,24.70
2018-08-20T12:06:15.652Z,24.90
2018-08-20T12:08:43.008Z,24.80
2018-08-20T12:11:10.437Z,24.70
2018-08-20T12:13:37.804Z,24.20
2018-08-20T12:16:05.339Z,24.40
2018-08-20T12:18:32.705Z,24.00
2018-08-20T12:21:00.108Z,23.70
2018-08-20T12:23:27.441Z,24.30
2018-08-20T12:25:54.796Z,23.90
2018-08-20T12:28:22.171Z,24.50
2018-08-20T12:30:49.653Z,24.40
2018-08-20T12:33:17.042Z,24.00
2018-08-20T12:35:44.415Z,23.10
2018-08-20T12:38:11.774Z,23.30
2018-08-20T12:40:39.357Z,23.80
2018-08-20T12:43:06.717Z,24.10
2018-08-20T12:45:34.083Z,24.50
2018-08-20T12:48:01.451Z,24.50
2018-08-20T12:50:28.807Z,24.60
2018-08-20T12:52:56.224Z,24.90
2018-08-20T12:55:23.594Z,24.90
2018-08-20T12:57:50.961Z,23.90
2018-08-20T13:00:18.329Z,24.00
2018-08-20T13:02:45.672Z,24.30
2018-08-20T13:05:13.033Z,24.80
2018-08-20T13:07:40.639Z,25.10
2018-08-20T13:10:08.082Z,24.30
2018-08-20T13:12:36.419Z,23.70
2018-08-20T13:15:03.932Z,24.30
2018-08-20T13:17:31.316Z,24.70
2018-08-20T13:19:58.672Z,24.80
2018-08-20T13:22:26.050Z,24.70
2018-08-20T13:24:53.427Z,24.30
2018-08-20T13:27:20.771Z,24.30
2018-08-20T13:29:48.129Z,24.70
2018-08-20T13:32:15.503Z,24.40
2018-08-20T13:34:42.839Z,24.40
2018-08-20T13:37:10.185Z,24.30
2018-08-20T13:39:37.509Z,24.60
2018-08-20T13:42:05.007Z,24.50
2018-08-20T13:44:32.384Z,24.60
2018-08-20T13:46:59.768Z,24.40
2018-08-20T13:49:27.133Z,24.70
2018-08-20T13:51:54.493Z,24.30
2018-08-20T13:54:21.875Z,24.30
2018-08-20T13:56:49.230Z,24.60
2018-08-20T13:59:16.620Z,24.80
2018-08-20T14:01:43.987Z,24.60
2018-08-20T14:04:11.376Z,24.60
2018-08-20T14:06:38.722Z,24.30
2018-08-20T14:09:07.248Z,24.50
2018-08-20T14:11:34.627Z,24.60
2018-08-20T14:14:01.982Z,24.70
2018-08-20T14:16:29.467Z,23.90
2018-08-20T14:18:56.884Z,24.20
2018-08-20T14:21:24.309Z,24.20
2018-08-20T14:23:51.638Z,24.40
2018-08-20T14:26:18.997Z,24.40
2018-08-20T14:28:46.348Z,23.80
2018-08-20T14:31:13.684Z,23.30
2018-08-20T14:33:41.039Z,23.20
2018-08-20T14:36:08.992Z,23.50
2018-08-20T14:38:36.455Z,23.60
2018-08-20T14:41:04.422Z,23.90
2018-08-20T14:43:31.800Z,23.90
2018-08-20T14:46:04.762Z,23.70
2018-08-20T14:48:32.406Z,23.60
2018-08-20T14:50:59.991Z,23.20
2018-08-20T14:53:27.410Z,23.80
2018-08-20T14:55:54.927Z,23.80
2018-08-20T14:58:22.504Z,24.00
2018-08-20T15:00:49.886Z,24.30
2018-08-20T15:03:17.219Z,24.70
2018-08-20T15:05:44.606Z,24.50
2018-08-20T15:08:12.007Z,24.60
2018-08-20T15:10:39.368Z,24.20
2018-08-20T15:13:06.731Z,24.40
2018-08-20T15:15:34.210Z,23.70
2018-08-20T15:18:01.473Z,23.40
2018-08-20T15:20:28.836Z,23.40
2018-08-20T15:22:56.220Z,23.90
2018-08-20T15:25:23.589Z,23.20
2018-08-20T15:27:50.964Z,23.20
2018-08-20T15:30:18.344Z,23.40
2018-08-20T15:32:45.774Z,23.20
2018-08-20T15:35:13.192Z,23.90
2018-08-20T15:37:40.583Z,24.20
2018-08-20T15:40:08.018Z,24.10
2018-08-20T15:42:35.572Z,24.30
2018-08-20T15:45:02.976Z,24.20
2018-08-20T15:47:30.348Z,23.60
2018-08-20T15:49:57.709Z,22.90
2018-08-20T15:52:25.080Z,23.00
2018-08-20T15:54:52.623Z,22.80
2018-08-20T15:57:20.039Z,22.90
2018-08-20T15:59:47.412Z,22.60
2018-08-20T16:02:14.937Z,22.90
2018-08-20T16:04:42.272Z,23.10
2018-08-20T16:07:09.694Z,23.40
2018-08-20T16:09:37.083Z,23.60
2018-08-20T16:12:05.167Z,23.90
2018-08-20T16:14:32.592Z,24.00
2018-08-20T16:16:59.946Z,24.30
2018-08-20T16:19:27.363Z,24.40
2018-08-20T16:21:54.751Z,24.60
2018-08-20T16:24:22.130Z,23.90
2018-08-20T16:26:49.562Z,23.70
2018-08-20T16:29:16.900Z,23.80
2018-08-20T16:31:44.296Z,23.80
2018-08-20T16:34:11.668Z,23.80
2018-08-20T16:36:39.141Z,23.80
2018-08-20T16:39:08.744Z,23.40
2018-08-20T16:41:36.181Z,23.40
2018-08-20T16:44:03.603Z,23.80
2018-08-20T16:46:31.092Z,23.90
2018-08-20T16:48:58.492Z,24.10
2018-08-20T16:51:25.877Z,24.30
2018-08-20T16:53:53.246Z,24.20
2018-08-20T16:56:20.647Z,23.80
2018-08-20T16:58:48.056Z,23.90
2018-08-20T17:01:17.322Z,23.20
2018-08-20T17:03:44.775Z,23.40
2018-08-20T17:06:12.139Z,22.70
2018-08-20T17:08:41.779Z,22.80
2018-08-20T17:11:09.976Z,23.10
2018-08-20T17:13:37.384Z,23.40
2018-08-20T17:16:05.694Z,23.30
2018-08-20T17:18:33.035Z,23.30
2018-08-20T17:21:00.424Z,23.00
2018-08-20T17:23:27.765Z,22.70
2018-08-20T17:25:56.427Z,23.30
2018-08-20T17:28:25.953Z,23.10
2018-08-20T17:30:54.213Z,23.20
2018-08-20T17:33:21.634Z,23.30
2018-08-20T17:35:49.056Z,23.40
2018-08-20T17:38:16.418Z,23.70
2018-08-20T17:40:43.817Z,23.40
2018-08-20T17:43:11.248Z,23.00
2018-08-20T17:45:38.649Z,22.70
2018-08-20T17:48:11.691Z,22.80
2018-08-20T17:50:40.315Z,22.40
2018-08-20T17:53:07.693Z,22.50
2018-08-20T17:55:35.092Z,22.00
2018-08-20T17:58:02.514Z,22.10
2018-08-20T18:00:38.219Z,22.90
2018-08-20T18:03:08.249Z,23.40
2018-08-20T18:05:35.657Z,23.30
2018-08-20T18:08:03.049Z,23.60
2018-08-20T18:10:30.457Z,22.80
2018-08-20T18:12:57.887Z,22.80
2018-08-20T18:15:25.301Z,22.40
2018-08-20T18:17:53.507Z,21.80
2018-08-20T18:20:20.936Z,21.90
2018-08-20T18:22:48.315Z,22.00
2018-08-20T18:25:15.862Z,22.30
2018-08-20T18:27:44.276Z,21.80
2018-08-20T18:30:12.930Z,21.30
2018-08-20T18:32:40.324Z,21.30
2018-08-20T18:35:08.034Z,21.20
2018-08-20T18:37:47.230Z,21.30
2018-08-20T18:40:14.805Z,20.60
2018-08-20T18:42:46.404Z,20.60
2018-08-20T18:45:13.843Z,20.90
2018-08-20T18:47:41.343Z,20.80
2018-08-20T18:50:09.650Z,21.10
2018-08-20T18:52:37.013Z,20.50
2018-08-20T18:55:04.417Z,20.60
2018-08-20T18:57:33.185Z,20.60
2018-08-20T19:00:02.558Z,20.30
2018-08-20T19:03:03.536Z,20.10
2018-08-20T19:05:38.561Z,19.90
2018-08-20T19:08:09.264Z,20.10
2018-08-20T19:10:36.718Z,19.80
2018-08-20T19:13:04.156Z,19.70
2018-08-20T19:15:42.818Z,19.50
2018-08-20T19:18:12.401Z,19.30
2018-08-20T19:20:40.398Z,19.30
2018-08-20T19:23:07.835Z,19.20
2018-08-20T19:25:35.240Z,19.10
2018-08-20T19:28:07.567Z,19.00
2018-08-20T19:30:34.950Z,19.20
2018-08-20T19:33:03.663Z,19.00
2018-08-20T19:35:31.063Z,19.00
2018-08-20T19:37:58.451Z,19.00
2018-08-20T19:40:25.799Z,18.80
2018-08-20T19:42:53.430Z,18.80
2018-08-20T19:45:23.218Z,18.80
2018-08-20T19:47:50.815Z,18.70
2018-08-20T19:50:18.230Z,18.70
2018-08-20T19:52:45.639Z,18.70
2018-08-20T19:55:13.081Z,18.60
2018-08-20T19:57:40.495Z,18.60
2018-08-20T20:00:09.461Z,18.70
2018-08-20T20:02:37.573Z,18.70
2018-08-20T20:05:06.007Z,18.60
2018-08-20T20:07:34.968Z,18.70
2018-08-20T20:10:07.740Z,18.70
2018-08-20T20:12:39.718Z,18.60
2018-08-20T20:15:07.093Z,18.60
2018-08-20T20:17:34.527Z,18.60
2018-08-20T20:20:01.978Z,18.50
2018-08-20T20:22:29.364Z,18.60
2018-08-20T20:24:56.731Z,18.60
2018-08-20T20:27:24.113Z,18.60
2018-08-20T20:29:51.498Z,18.60
2018-08-20T20:32:18.871Z,18.60
2018-08-20T20:34:46.245Z,18.70
2018-08-20T20:37:13.599Z,18.80
2018-08-20T20:39:45.531Z,18.90
2018-08-20T20:42:12.904Z,18.80
2018-08-20T20:44:40.261Z,18.80
2018-08-20T20:47:07.652Z,18.70
2018-08-20T20:49:34.990Z,18.70
2018-08-20T20:52:02.332Z,18.70
2018-08-20T20:54:29.723Z,18.60
2018-08-20T20:56:57.070Z,18.50
2018-08-20T20:59:24.472Z,18.50
2018-08-20T21:01:51.831Z,18.40
2018-08-20T21:04:19.216Z,18.40
2018-08-20T21:06:46.591Z,18.30
2018-08-20T21:09:14.065Z,18.40
2018-08-20T21:11:41.416Z,18.30
2018-08-20T21:14:08.907Z,18.30
2018-08-20T21:16:36.325Z,18.20
2018-08-20T21:19:04.601Z,18.20
2018-08-20T21:21:32.495Z,18.20
2018-08-20T21:23:59.860Z,18.10
2018-08-20T21:26:27.256Z,18.00
2018-08-20T21:28:55.253Z,18.00
2018-08-20T21:31:23.787Z,17.90
2018-08-20T21:33:54.175Z,17.90
2018-08-20T21:36:21.532Z,17.80
2018-08-20T21:38:48.875Z,17.70
2018-08-20T21:41:16.325Z,17.60
2018-08-20T21:43:45.237Z,17.60
2018-08-20T21:46:12.975Z,17.50
2018-08-20T21:48:40.669Z,17.50
2018-08-20T21:51:11.156Z,17.40
2018-08-20T21:53:39.019Z,17.40
2018-08-20T21:56:08.555Z,17.40
2018-08-20T21:58:36.155Z,17.30
2018-08-20T22:01:04.040Z,17.30
2018-08-20T22:03:31.269Z,17.30
2018-08-20T22:05:58.616Z,17.20
2018-08-20T22:08:26.022Z,17.10
2018-08-20T22:10:53.359Z,17.10
2018-08-20T22:13:20.722Z,17.10
2018-08-20T22:16:02.935Z,17.20
2018-08-20T22:18:34.869Z,17.10
2018-08-20T22:21:02.299Z,17.10
2018-08-20T22:23:39.084Z,17.00
2018-08-20T22:25:57.022Z,17.00
2018-08-20T22:28:24.507Z,17.00
2018-08-20T22:30:55.178Z,17.00
2018-08-20T22:33:22.841Z,17.00
2018-08-20T22:35:50.221Z,17.00
2018-08-20T22:38:17.583Z,17.00
2018-08-20T22:40:47.056Z,17.00
2018-08-20T22:43:14.431Z,17.10
2018-08-20T22:45:41.781Z,17.10
2018-08-20T22:48:09.919Z,17.30
2018-08-20T22:50:37.264Z,17.40
2018-08-20T22:53:05.152Z,17.30
2018-08-20T22:55:32.480Z,17.30
2018-08-20T22:58:07.231Z,17.30
2018-08-20T23:00:34.735Z,17.30
2018-08-20T23:03:02.211Z,17.30
2018-08-20T23:05:30.900Z,17.20
2018-08-20T23:08:10.389Z,17.20
2018-08-20T23:10:38.736Z,17.20
2018-08-20T23:13:06.329Z,17.20
2018-08-20T23:15:33.732Z,17.10
2018-08-20T23:18:01.082Z,17.10
2018-08-20T23:20:30.065Z,17.10
2018-08-20T23:22:57.453Z,17.10
2018-08-20T23:25:24.900Z,17.10
2018-08-20T23:27:52.261Z,17.10
2018-08-20T23:30:19.628Z,17.00
2018-08-20T23:32:46.992Z,16.90
2018-08-20T23:35:14.377Z,16.90
2018-08-20T23:37:41.769Z,16.80
2018-08-20T23:40:09.304Z,16.80
2018-08-20T23:42:36.680Z,16.80
2018-08-20T23:45:04.740Z,16.70
2018-08-20T23:47:32.105Z,16.70
2018-08-20T23:49:59.485Z,16.60
2018-08-20T23:52:26.854Z,16.60
2018-08-20T23:54:54.344Z,16.60
2018-08-20T23:57:21.703Z,16.50
2018-08-20T23:59:49.052Z,16.50
